createdAt,value
2023-03-22T00:00:15.441Z,25.30
2023-03-22T00:03:04.005Z,26.13
2023-03-22T00:05:32.098Z,23.00
2023-03-22T00:07:59.384Z,21.75
2023-03-22T00:10:31.098Z,23.35
2023-03-22T00:12:58.314Z,27.23
2023-03-22T00:15:26.468Z,23.92
2023-03-22T00:17:53.652Z,26.48
2023-03-22T00:20:23.669Z,32.30
2023-03-22T00:22:51.115Z,25.15
2023-03-22T00:25:18.676Z,22.52
2023-03-22T00:27:45.998Z,22.85
2023-03-22T00:30:13.988Z,21.80
2023-03-22T00:32:42.505Z,23.65
2023-03-22T00:35:11.367Z,21.30
2023-03-22T00:37:38.921Z,21.30
2023-03-22T00:40:12.404Z,21.70
2023-03-22T00:42:41.270Z,22.02
2023-03-22T00:45:11.604Z,22.52
2023-03-22T00:47:39.271Z,19.80
2023-03-22T00:50:09.067Z,25.80
2023-03-22T00:52:36.822Z,39.33
2023-03-22T00:55:04.599Z,24.00
2023-03-22T00:57:31.864Z,26.17
2023-03-22T00:59:59.607Z,25.08
2023-03-22T01:02:29.800Z,25.75
2023-03-22T01:04:57.919Z,26.55
2023-03-22T01:07:26.527Z,24.65
2023-03-22T01:09:54.798Z,25.63
2023-03-22T01:12:21.993Z,24.48
2023-03-22T01:14:49.544Z,24.08
2023-03-22T01:17:16.832Z,25.83
2023-03-22T01:19:44.446Z,25.50
2023-03-22T01:22:11.750Z,31.05
2023-03-22T01:24:39.360Z,26.23
2023-03-22T01:27:06.641Z,27.65
2023-03-22T01:29:35.472Z,27.08
2023-03-22T01:32:04.212Z,26.45
2023-03-22T01:34:32.033Z,29.48
2023-03-22T01:37:00.861Z,27.15
2023-03-22T01:39:29.367Z,29.42
2023-03-22T01:41:59.323Z,29.17
2023-03-22T01:44:30.693Z,30.90
2023-03-22T01:46:59.191Z,33.28
2023-03-22T01:49:33.192Z,30.50
2023-03-22T01:52:06.387Z,32.17
2023-03-22T01:54:57.118Z,29.50
2023-03-22T01:57:46.047Z,30.45
2023-03-22T02:00:20.641Z,26.95
2023-03-22T02:03:13.345Z,32.97
2023-03-22T02:05:47.828Z,33.75
2023-03-22T02:08:15.776Z,32.72
2023-03-22T02:11:07.736Z,34.13
2023-03-22T02:13:49.341Z,33.45
2023-03-22T02:17:14.606Z,31.17
2023-03-22T02:20:28.552Z,34.85
2023-03-22T02:23:02.345Z,31.30
2023-03-22T02:25:41.729Z,35.58
2023-03-22T02:28:46.413Z,34.08
2023-03-22T02:31:29.123Z,35.38
2023-03-22T02:34:14.686Z,35.35
2023-03-22T02:37:17.485Z,42.13
2023-03-22T02:40:15.139Z,37.25
2023-03-22T02:43:09.941Z,32.53
2023-03-22T02:46:18.070Z,39.50
2023-03-22T02:49:14.895Z,36.78
2023-03-22T02:51:47.047Z,33.33
2023-03-22T02:54:26.555Z,35.40
2023-03-22T02:57:01.580Z,38.80
2023-03-22T02:59:31.240Z,36.08
2023-03-22T03:02:03.783Z,34.95
2023-03-22T03:04:35.617Z,34.70
2023-03-22T03:07:07.399Z,33.65
2023-03-22T03:09:37.361Z,32.13
2023-03-22T03:12:13.562Z,35.35
2023-03-22T03:14:41.033Z,33.40
2023-03-22T03:17:24.005Z,30.00
2023-03-22T03:20:13.292Z,30.13
2023-03-22T03:23:09.882Z,32.17
2023-03-22T03:25:58.121Z,30.88
2023-03-22T03:28:38.531Z,33.88
2023-03-22T03:31:37.656Z,31.13
2023-03-22T03:34:17.207Z,31.38
2023-03-22T03:36:53.467Z,30.30
2023-03-22T03:39:24.224Z,31.42
2023-03-22T03:41:55.221Z,33.10
2023-03-22T03:44:23.851Z,34.95
2023-03-22T03:46:52.898Z,35.40
2023-03-22T03:49:23.279Z,38.20
2023-03-22T03:51:55.942Z,35.58
2023-03-22T03:54:24.016Z,38.03
2023-03-22T03:56:51.299Z,37.15
2023-03-22T03:59:21.030Z,48.22
2023-03-22T04:01:51.709Z,44.60
2023-03-22T04:04:28.582Z,41.70
2023-03-22T04:07:01.365Z,44.25
2023-03-22T04:09:37.284Z,46.38
2023-03-22T04:12:18.203Z,45.17
2023-03-22T04:15:04.459Z,50.25
2023-03-22T04:17:32.221Z,48.70
2023-03-22T04:20:05.361Z,50.67
2023-03-22T04:22:34.658Z,55.67
2023-03-22T04:25:03.709Z,51.80
2023-03-22T04:27:31.698Z,51.33
2023-03-22T04:30:02.306Z,50.78
2023-03-22T04:33:07.282Z,55.22
2023-03-22T04:36:03.450Z,50.38
2023-03-22T04:38:40.421Z,50.30
2023-03-22T04:41:11.564Z,53.47
2023-03-22T04:43:47.154Z,58.90
2023-03-22T04:46:17.208Z,61.22
2023-03-22T04:48:50.347Z,53.35
2023-03-22T04:51:18.599Z,55.03
2023-03-22T04:54:03.089Z,52.03
2023-03-22T04:56:30.735Z,52.75
2023-03-22T04:58:57.995Z,57.38
2023-03-22T05:01:25.769Z,60.55
2023-03-22T05:04:02.331Z,59.83
2023-03-22T05:06:32.806Z,57.78
2023-03-22T05:09:09.754Z,59.38
2023-03-22T05:11:37.537Z,61.97
2023-03-22T05:14:28.054Z,61.03
2023-03-22T05:16:55.782Z,56.53
2023-03-22T05:19:24.508Z,60.25
2023-03-22T05:21:58.317Z,55.72
2023-03-22T05:24:38.095Z,59.45
2023-03-22T05:27:05.922Z,59.55
2023-03-22T05:29:36.925Z,64.00
2023-03-22T05:32:14.901Z,60.00
2023-03-22T05:34:45.521Z,62.40
2023-03-22T05:37:39.368Z,56.40
2023-03-22T05:40:10.122Z,57.17
2023-03-22T05:42:45.482Z,58.40
2023-03-22T05:45:21.762Z,59.08
2023-03-22T05:47:58.722Z,56.58
2023-03-22T05:50:27.622Z,58.45
2023-03-22T05:52:55.202Z,61.35
2023-03-22T05:55:32.226Z,59.45
2023-03-22T05:58:03.228Z,59.58
2023-03-22T06:00:32.374Z,59.65
2023-03-22T06:03:18.653Z,59.13
2023-03-22T06:05:54.883Z,54.78
2023-03-22T06:08:34.161Z,58.08
2023-03-22T06:11:01.484Z,55.33
2023-03-22T06:13:29.089Z,50.60
2023-03-22T06:16:01.105Z,51.58
2023-03-22T06:18:30.048Z,51.42
2023-03-22T06:21:04.182Z,52.63
2023-03-22T06:23:32.425Z,51.75
2023-03-22T06:25:59.711Z,55.92
2023-03-22T06:28:29.941Z,46.38
2023-03-22T06:30:58.954Z,50.55
2023-03-22T06:33:39.947Z,50.55
2023-03-22T06:36:19.540Z,50.63
2023-03-22T06:39:16.407Z,50.38
2023-03-22T06:41:45.402Z,51.20
2023-03-22T06:44:14.019Z,52.60
2023-03-22T06:47:01.336Z,49.90
2023-03-22T06:49:49.918Z,55.20
2023-03-22T06:52:23.308Z,53.78
2023-03-22T06:54:51.400Z,51.00
2023-03-22T06:57:18.999Z,55.95
2023-03-22T06:59:46.632Z,52.65
2023-03-22T07:02:13.945Z,52.22
2023-03-22T07:04:47.008Z,47.13
2023-03-22T07:07:14.605Z,47.45
2023-03-22T07:09:42.298Z,49.10
2023-03-22T07:12:10.050Z,45.22
2023-03-22T07:14:37.952Z,42.72
2023-03-22T07:17:24.598Z,42.95
2023-03-22T07:19:53.342Z,37.08
2023-03-22T07:22:24.913Z,40.63
2023-03-22T07:24:58.223Z,38.93
2023-03-22T07:27:28.413Z,32.72
2023-03-22T07:29:56.762Z,36.17
2023-03-22T07:32:24.136Z,33.78
2023-03-22T07:35:03.476Z,33.53
2023-03-22T07:37:30.947Z,30.83
2023-03-22T07:39:58.668Z,30.98
2023-03-22T07:42:31.284Z,30.83
2023-03-22T07:45:25.266Z,28.55
2023-03-22T07:48:12.038Z,28.23
2023-03-22T07:50:57.569Z,27.38
2023-03-22T07:53:26.704Z,25.65
2023-03-22T07:55:54.401Z,25.10
2023-03-22T07:58:21.740Z,24.63
2023-03-22T08:00:49.834Z,25.63
2023-03-22T08:03:40.172Z,23.75
2023-03-22T08:06:37.200Z,22.63
2023-03-22T08:09:05.262Z,25.88
2023-03-22T08:11:32.840Z,28.75
2023-03-22T08:14:00.382Z,24.02
2023-03-22T08:16:28.316Z,27.75
2023-03-22T08:18:56.557Z,24.60
2023-03-22T08:21:26.386Z,27.70
2023-03-22T08:23:55.717Z,24.55
2023-03-22T08:26:49.828Z,27.60
2023-03-22T08:29:37.447Z,25.98
2023-03-22T08:32:07.822Z,27.45
2023-03-22T08:34:40.514Z,27.83
2023-03-22T08:37:09.334Z,25.88
2023-03-22T08:39:37.003Z,25.85
2023-03-22T08:42:27.364Z,23.20
2023-03-22T08:44:54.606Z,22.13
2023-03-22T08:47:25.013Z,22.35
2023-03-22T08:52:34.312Z,22.25
2023-03-22T08:55:10.314Z,22.60
2023-03-22T08:58:04.651Z,24.02
2023-03-22T09:00:48.525Z,19.48
2023-03-22T09:03:47.310Z,21.33
2023-03-22T09:06:15.085Z,20.27
2023-03-22T09:08:44.187Z,20.42
2023-03-22T09:11:17.550Z,21.90
2023-03-22T09:13:47.211Z,22.55
2023-03-22T09:16:15.101Z,20.88
2023-03-22T09:18:44.090Z,19.08
2023-03-22T09:21:16.055Z,19.33
2023-03-22T09:24:12.547Z,18.95
2023-03-22T09:26:44.506Z,19.15
2023-03-22T09:29:12.527Z,19.60
2023-03-22T09:31:41.109Z,17.30
2023-03-22T09:34:17.931Z,17.98
2023-03-22T09:36:45.528Z,17.02
2023-03-22T09:39:16.434Z,18.50
2023-03-22T09:41:54.968Z,18.98
2023-03-22T09:44:42.897Z,16.50
2023-03-22T09:47:44.270Z,18.75
2023-03-22T09:50:30.463Z,18.30
2023-03-22T09:52:58.773Z,17.55
2023-03-22T09:55:46.083Z,18.55
2023-03-22T09:58:22.480Z,15.50
2023-03-22T10:01:12.227Z,19.40
2023-03-22T10:04:15.611Z,21.33
2023-03-22T10:06:49.474Z,16.88
2023-03-22T10:09:31.843Z,18.27
2023-03-22T10:12:34.082Z,16.10
2023-03-22T10:15:10.835Z,18.42
2023-03-22T10:17:43.032Z,16.45
2023-03-22T10:20:24.237Z,18.35
2023-03-22T10:22:54.396Z,15.07
2023-03-22T10:25:28.032Z,14.50
2023-03-22T10:27:57.305Z,14.10
2023-03-22T10:30:27.594Z,18.17
2023-03-22T10:33:03.827Z,17.33
2023-03-22T10:35:32.390Z,15.45
2023-03-22T10:38:03.857Z,15.82
2023-03-22T10:40:36.566Z,15.45
2023-03-22T10:43:10.517Z,16.38
2023-03-22T10:45:38.777Z,12.48
2023-03-22T10:48:36.208Z,14.55
2023-03-22T10:51:04.350Z,14.82
2023-03-22T10:53:49.973Z,13.40
2023-03-22T10:56:20.293Z,14.63
2023-03-22T10:58:50.069Z,12.63
2023-03-22T11:01:27.724Z,12.85
2023-03-22T11:03:59.102Z,12.23
2023-03-22T11:06:30.131Z,12.25
2023-03-22T11:09:17.944Z,14.48
2023-03-22T11:11:57.654Z,15.32
2023-03-22T11:14:43.250Z,14.65
2023-03-22T11:17:14.958Z,14.90
2023-03-22T11:19:52.956Z,13.35
2023-03-22T11:22:31.630Z,12.45
2023-03-22T11:25:00.769Z,14.60
2023-03-22T11:27:33.444Z,14.60
2023-03-22T11:30:09.900Z,13.27
2023-03-22T11:32:39.438Z,14.63
2023-03-22T11:35:16.666Z,12.38
2023-03-22T11:37:47.041Z,12.23
2023-03-22T11:40:26.628Z,15.95
2023-03-22T11:43:11.153Z,13.90
2023-03-22T11:45:42.779Z,16.00
2023-03-22T11:48:16.695Z,13.65
2023-03-22T11:50:45.906Z,12.70
2023-03-22T11:53:19.179Z,12.25
2023-03-22T11:55:50.346Z,14.32
2023-03-22T11:58:27.161Z,14.20
2023-03-22T12:00:59.679Z,15.77
2023-03-22T12:03:36.723Z,13.73
2023-03-22T12:06:16.651Z,15.05
2023-03-22T12:08:49.769Z,14.80
2023-03-22T12:11:36.229Z,13.52
2023-03-22T12:14:42.391Z,15.45
2023-03-22T12:17:28.783Z,14.27
2023-03-22T12:20:29.261Z,13.68
2023-03-22T12:22:57.097Z,14.95
2023-03-22T12:25:32.316Z,13.50
2023-03-22T12:28:06.910Z,13.35
2023-03-22T12:30:43.048Z,13.13
2023-03-22T12:33:17.941Z,16.42
2023-03-22T12:35:46.909Z,15.13
2023-03-22T12:38:28.069Z,13.68
2023-03-22T12:40:58.066Z,16.60
2023-03-22T12:43:44.220Z,14.95
2023-03-22T12:46:27.843Z,14.25
2023-03-22T12:49:03.811Z,14.45
2023-03-22T12:51:31.562Z,14.77
2023-03-22T12:54:01.957Z,13.85
2023-03-22T12:56:50.262Z,16.45
2023-03-22T12:59:22.344Z,16.95
2023-03-22T13:04:36.642Z,15.38
2023-03-22T13:07:19.628Z,13.45
2023-03-22T13:09:50.834Z,15.50
2023-03-22T13:12:18.082Z,18.67
2023-03-22T13:15:28.273Z,17.38
2023-03-22T13:17:59.297Z,18.00
2023-03-22T13:20:30.914Z,19.15
2023-03-22T13:23:01.871Z,22.92
2023-03-22T13:25:34.864Z,16.00
2023-03-22T13:28:26.414Z,17.80
2023-03-22T13:30:58.220Z,20.15
2023-03-22T13:33:29.059Z,16.80
2023-03-22T13:36:07.443Z,18.13
2023-03-22T13:38:42.416Z,17.25
2023-03-22T13:41:33.037Z,20.00
2023-03-22T13:44:04.371Z,20.80
2023-03-22T13:46:36.488Z,19.77
2023-03-22T13:49:04.309Z,19.38
2023-03-22T13:51:33.299Z,17.20
2023-03-22T13:54:16.601Z,19.17
2023-03-22T13:56:44.511Z,17.42
2023-03-22T13:59:14.559Z,18.95
2023-03-22T14:01:47.748Z,18.75
2023-03-22T14:04:22.808Z,20.75
2023-03-22T14:06:55.223Z,18.08
2023-03-22T14:09:31.281Z,19.48
2023-03-22T14:12:20.100Z,18.30
2023-03-22T14:14:52.128Z,24.95
2023-03-22T14:17:39.264Z,17.30
2023-03-22T14:20:11.425Z,16.05
